Time;durP1;ratioP1;P1;durP2;ratioP2;P2;SDS_P1;SDS_P2;PMS_P1;PMS_P2;Temp;Humidity;BMP_temperature;BMP_pressure;BME280_temperature;BME280_humidity;BME280_pressure;Samples;Min_cycle;Max_cycle;Signal;HPM_P1;HPM_P2
2021/09/05 00:00:02;;;;;;;27.48;16.40;;;;;;;;;;2090440;28;20660;-56
2021/09/05 00:01:11;;;;;;;24.83;15.25;;;;;;;;;;2087398;28;20194;-56
2021/09/05 00:02:11;;;;;;;25.88;16.73;;;;;;;;;;2090175;28;20195;-56
2021/09/05 00:03:11;;;;;;;22.65;16.27;;;;;;;;;;2090724;28;20171;-58
2021/09/05 00:04:11;;;;;;;25.73;15.55;;;;;;;;;;2090321;28;20263;-55
2021/09/05 00:05:12;;;;;;;25.08;16.77;;;;;;;;;;2085866;28;20582;-55
2021/09/05 00:06:12;;;;;;;22.00;15.95;;;;;;;;;;2090727;28;20214;-58
2021/09/05 00:07:12;;;;;;;24.67;16.75;;;;;;;;;;2090556;28;20209;-54
2021/09/05 00:08:13;;;;;;;25.20;16.55;;;;;;;;;;2090318;28;20291;-53
2021/09/05 00:09:13;;;;;;;27.77;16.83;;;;;;;;;;2084593;28;20219;-55
2021/09/05 00:10:13;;;;;;;23.85;17.27;;;;;;;;;;2086317;28;20172;-54
2021/09/05 00:11:13;;;;;;;19.08;16.13;;;;;;;;;;2087664;28;20255;-55
2021/09/05 00:12:14;;;;;;;23.10;16.50;;;;;;;;;;2086892;28;20383;-58
2021/09/05 00:13:14;;;;;;;24.70;16.98;;;;;;;;;;2082969;28;20248;-51
2021/09/05 00:14:14;;;;;;;20.17;15.70;;;;;;;;;;2088673;28;20180;-55
2021/09/05 00:15:15;;;;;;;22.08;15.88;;;;;;;;;;2087532;28;20164;-56
2021/09/05 00:16:15;;;;;;;25.08;16.65;;;;;;;;;;2090223;28;20203;-56
2021/09/05 00:17:16;;;;;;;23.73;15.57;;;;;;;;;;2087442;28;20546;-55
2021/09/05 00:18:16;;;;;;;26.70;15.90;;;;;;;;;;2090291;28;20184;-55
2021/09/05 00:19:16;;;;;;;24.40;16.88;;;;;;;;;;2090621;28;20554;-59
2021/09/05 00:20:16;;;;;;;19.90;15.13;;;;;;;;;;2090954;28;20167;-57
2021/09/05 00:21:17;;;;;;;25.00;15.98;;;;;;;;;;2089846;28;20183;-56
2021/09/05 00:22:17;;;;;;;21.73;15.73;;;;;;;;;;2090414;28;20167;-57
2021/09/05 00:23:17;;;;;;;23.30;16.02;;;;;;;;;;2090265;28;20523;-58
2021/09/05 00:24:18;;;;;;;23.15;16.70;;;;;;;;;;2090819;28;20175;-55
2021/09/05 00:25:18;;;;;;;22.65;16.60;;;;;;;;;;2089033;28;20503;-58
2021/09/05 00:26:19;;;;;;;25.58;16.90;;;;;;;;;;2090411;28;20186;-58
2021/09/05 00:27:20;;;;;;;27.55;14.95;;;;;;;;;;2090810;28;20195;-59
2021/09/05 00:28:21;;;;;;;23.42;16.38;;;;;;;;;;2088774;28;20199;-56
2021/09/05 00:29:23;;;;;;;20.33;15.20;;;;;;;;;;2081907;28;20687;-56
2021/09/05 00:30:24;;;;;;;24.33;16.10;;;;;;;;;;2088858;28;20167;-57
2021/09/05 00:31:24;;;;;;;24.67;16.17;;;;;;;;;;2085378;28;20243;-58
2021/09/05 00:32:25;;;;;;;21.45;15.75;;;;;;;;;;2079925;28;20211;-56
2021/09/05 00:33:25;;;;;;;25.85;17.17;;;;;;;;;;2081776;28;20165;-58
2021/09/05 00:34:26;;;;;;;25.25;17.08;;;;;;;;;;2073402;28;20161;-58
2021/09/05 00:35:28;;;;;;;25.30;15.88;;;;;;;;;;2065982;28;20165;-58
2021/09/05 00:36:29;;;;;;;25.10;16.40;;;;;;;;;;2080947;28;20160;-59
2021/09/05 00:37:29;;;;;;;23.27;17.33;;;;;;;;;;2089128;28;20601;-57
2021/09/05 00:38:30;;;;;;;22.95;15.90;;;;;;;;;;2088477;28;20247;-59
2021/09/05 00:39:30;;;;;;;21.83;15.77;;;;;;;;;;2090084;28;20167;-58
2021/09/05 00:40:30;;;;;;;22.23;17.50;;;;;;;;;;2081190;28;20180;-59
2021/09/05 00:41:31;;;;;;;22.70;16.13;;;;;;;;;;2084936;28;20263;-59
2021/09/05 00:42:31;;;;;;;23.52;16.33;;;;;;;;;;2090407;28;20172;-56
2021/09/05 00:43:31;;;;;;;21.35;15.27;;;;;;;;;;2089924;28;20199;-57
2021/09/05 00:44:31;;;;;;;24.33;16.33;;;;;;;;;;2077718;28;20751;-58
2021/09/05 00:45:32;;;;;;;21.70;16.20;;;;;;;;;;2073961;28;20240;-59
2021/09/05 00:46:32;;;;;;;23.08;15.50;;;;;;;;;;2089733;28;20234;-60
2021/09/05 00:47:33;;;;;;;25.25;16.02;;;;;;;;;;2077971;28;20689;-56
2021/09/05 00:48:33;;;;;;;24.13;15.30;;;;;;;;;;2070020;28;20189;-55
2021/09/05 00:49:34;;;;;;;21.83;14.93;;;;;;;;;;2090494;28;20206;-58
2021/09/05 00:50:35;;;;;;;24.27;16.27;;;;;;;;;;2089750;28;20174;-57
2021/09/05 00:51:36;;;;;;;23.13;15.32;;;;;;;;;;2088097;28;20168;-57
2021/09/05 00:52:40;;;;;;;24.70;16.52;;;;;;;;;;2085205;28;20278;-55
2021/09/05 00:53:40;;;;;;;23.23;16.58;;;;;;;;;;2079754;28;20649;-52
2021/09/05 00:54:43;;;;;;;20.00;14.98;;;;;;;;;;2088986;28;20648;-59
2021/09/05 00:55:45;;;;;;;23.88;14.88;;;;;;;;;;2090326;28;20144;-59
2021/09/05 00:56:48;;;;;;;20.10;15.57;;;;;;;;;;2089552;28;20221;-55
2021/09/05 00:57:54;;;;;;;20.83;14.73;;;;;;;;;;2090056;28;20163;-54
2021/09/05 00:58:56;;;;;;;19.95;14.02;;;;;;;;;;2089416;28;20206;-60
2021/09/05 00:59:57;;;;;;;21.67;15.38;;;;;;;;;;2089936;28;20179;-56
2021/09/05 01:00:58;;;;;;;20.27;14.73;;;;;;;;;;2084413;28;20262;-59
2021/09/05 01:02:01;;;;;;;23.13;15.35;;;;;;;;;;2089181;28;20564;-56
2021/09/05 01:03:02;;;;;;;21.65;15.27;;;;;;;;;;2089604;28;20168;-56
2021/09/05 01:04:03;;;;;;;23.77;16.08;;;;;;;;;;2088826;28;20240;-58
2021/09/05 01:05:04;;;;;;;23.70;16.20;;;;;;;;;;2081774;28;20175;-56
2021/09/05 01:06:05;;;;;;;24.85;15.55;;;;;;;;;;2087931;28;20298;-57
2021/09/05 01:07:06;;;;;;;21.15;15.63;;;;;;;;;;2090263;28;20211;-58
2021/09/05 01:08:07;;;;;;;26.77;17.45;;;;;;;;;;2086903;28;20278;-54
2021/09/05 01:09:08;;;;;;;26.73;17.02;;;;;;;;;;2085930;28;20195;-56
2021/09/05 01:10:10;;;;;;;25.25;16.63;;;;;;;;;;2089267;28;20272;-57
2021/09/05 01:11:11;;;;;;;22.17;16.23;;;;;;;;;;2089734;28;20167;-57
2021/09/05 01:12:11;;;;;;;21.83;16.75;;;;;;;;;;2087094;28;20516;-55
2021/09/05 01:13:12;;;;;;;20.90;15.45;;;;;;;;;;2087093;28;20578;-56
2021/09/05 01:14:12;;;;;;;23.38;15.50;;;;;;;;;;2089644;28;20191;-53
2021/09/05 01:15:13;;;;;;;23.75;15.95;;;;;;;;;;2081350;28;20164;-55
2021/09/05 01:16:41;;;;;;;20.80;16.42;;;;;;;;;;2077107;28;20165;-55
2021/09/05 01:17:58;;;;;;;25.05;17.15;;;;;;;;;;2069864;28;20204;-56
2021/09/05 01:19:18;;;;;;;25.52;17.95;;;;;;;;;;2084040;28;20168;-56
2021/09/05 01:20:40;;;;;;;20.85;15.35;;;;;;;;;;2081491;28;20184;-59
2021/09/05 01:21:59;;;;;;;23.60;15.45;;;;;;;;;;2087507;28;20172;-56
2021/09/05 01:23:17;;;;;;;22.05;14.80;;;;;;;;;;2089651;28;20695;-54
2021/09/05 01:24:36;;;;;;;23.35;15.25;;;;;;;;;;2082449;28;20172;-57
2021/09/05 01:26:07;;;;;;;23.25;14.77;;;;;;;;;;2064616;28;20180;-58
2021/09/05 01:27:26;;;;;;;25.25;16.05;;;;;;;;;;2089775;28;20164;-57
2021/09/05 01:28:53;;;;;;;19.33;14.15;;;;;;;;;;2080406;28;20180;-55
2021/09/05 01:30:12;;;;;;;22.00;14.93;;;;;;;;;;2081489;28;20165;-53
2021/09/05 01:31:38;;;;;;;20.55;14.93;;;;;;;;;;2090396;28;20620;-57
2021/09/05 01:33:08;;;;;;;21.83;15.27;;;;;;;;;;2086851;28;20179;-54
2021/09/05 01:34:27;;;;;;;25.23;14.93;;;;;;;;;;2089462;28;20168;-58
2021/09/05 01:35:47;;;;;;;20.58;13.98;;;;;;;;;;2083957;28;20184;-55
2021/09/05 01:37:06;;;;;;;22.50;14.88;;;;;;;;;;2085093;28;20172;-56
2021/09/05 01:38:25;;;;;;;23.08;16.20;;;;;;;;;;2083855;28;20219;-56
2021/09/05 01:39:45;;;;;;;25.77;16.25;;;;;;;;;;2086605;28;20171;-59
2021/09/05 01:41:05;;;;;;;22.15;15.45;;;;;;;;;;2080573;28;20179;-58
2021/09/05 01:42:28;;;;;;;21.55;15.90;;;;;;;;;;2083432;28;20195;-55
2021/09/05 01:43:58;;;;;;;23.33;15.85;;;;;;;;;;2083366;28;20183;-57
2021/09/05 01:45:17;;;;;;;22.90;16.33;;;;;;;;;;2081276;28;20183;-57
2021/09/05 01:46:34;;;;;;;22.25;16.25;;;;;;;;;;2074467;28;20185;-57
2021/09/05 01:48:07;;;;;;;22.70;14.45;;;;;;;;;;2077237;28;20939;-57
2021/09/05 01:49:30;;;;;;;24.02;15.13;;;;;;;;;;2080062;28;20183;-58
2021/09/05 01:50:54;;;;;;;21.05;15.18;;;;;;;;;;2079007;28;20692;-57
2021/09/05 01:52:23;;;;;;;26.55;16.85;;;;;;;;;;2075224;28;20185;-58
2021/09/05 01:53:44;;;;;;;25.98;16.35;;;;;;;;;;2064067;28;20188;-60
2021/09/05 01:55:13;;;;;;;25.75;15.70;;;;;;;;;;2086844;28;20266;-58
2021/09/05 01:56:32;;;;;;;22.23;15.63;;;;;;;;;;2075393;28;20153;-54
2021/09/05 01:57:51;;;;;;;25.33;16.48;;;;;;;;;;2085371;28;20195;-56
2021/09/05 01:59:14;;;;;;;23.00;16.42;;;;;;;;;;2088903;28;20324;-58
2021/09/05 02:00:37;;;;;;;24.42;16.65;;;;;;;;;;2089201;28;20175;-54
2021/09/05 02:01:48;;;;;;;24.33;16.83;;;;;;;;;;2080140;28;20403;-55
2021/09/05 02:03:20;;;;;;;24.63;16.85;;;;;;;;;;2074237;28;20188;-61
2021/09/05 02:04:35;;;;;;;24.77;15.55;;;;;;;;;;2072755;28;20164;-55
2021/09/05 02:05:56;;;;;;;26.63;16.13;;;;;;;;;;2085030;28;20191;-54
2021/09/05 02:07:22;;;;;;;24.63;16.92;;;;;;;;;;2080300;28;20318;-52
2021/09/05 02:08:41;;;;;;;29.60;18.60;;;;;;;;;;2086816;28;20179;-55
2021/09/05 02:10:10;;;;;;;27.15;18.20;;;;;;;;;;2086762;28;20758;-54
2021/09/05 02:11:30;;;;;;;25.75;18.45;;;;;;;;;;2088731;28;20691;-58
2021/09/05 02:12:53;;;;;;;26.95;17.88;;;;;;;;;;2083883;28;20171;-58
2021/09/05 02:14:19;;;;;;;24.70;17.10;;;;;;;;;;2084972;28;20263;-57
2021/09/05 02:15:35;;;;;;;27.85;18.55;;;;;;;;;;2073628;28;20692;-54
2021/09/05 02:17:11;;;;;;;23.40;16.70;;;;;;;;;;2074529;28;20176;-54
2021/09/05 02:18:25;;;;;;;26.92;17.95;;;;;;;;;;2063788;28;20184;-57
2021/09/05 02:19:37;;;;;;;26.30;16.80;;;;;;;;;;2070190;28;20436;-57
2021/09/05 02:21:13;;;;;;;25.13;16.70;;;;;;;;;;2086528;28;20159;-58
2021/09/05 02:22:34;;;;;;;26.50;18.05;;;;;;;;;;2082024;28;20173;-58
2021/09/05 02:24:00;;;;;;;26.05;17.55;;;;;;;;;;2078697;28;20299;-57
2021/09/05 02:25:20;;;;;;;24.25;17.05;;;;;;;;;;2082502;28;20262;-54
2021/09/05 02:26:48;;;;;;;24.23;16.70;;;;;;;;;;2076962;28;20224;-59
2021/09/05 02:28:18;;;;;;;25.05;17.83;;;;;;;;;;2081974;28;20208;-58
2021/09/05 02:29:45;;;;;;;28.33;16.52;;;;;;;;;;2081055;28;20180;-54
2021/09/05 02:31:04;;;;;;;29.67;17.85;;;;;;;;;;2089145;28;20175;-55
2021/09/05 02:32:27;;;;;;;25.88;16.52;;;;;;;;;;2088342;28;20160;-53
2021/09/05 02:33:50;;;;;;;26.27;18.27;;;;;;;;;;2072690;28;20179;-58
2021/09/05 02:35:26;;;;;;;28.42;17.40;;;;;;;;;;2068141;28;20204;-55
2021/09/05 02:36:43;;;;;;;23.05;17.02;;;;;;;;;;2071432;28;20184;-55
2021/09/05 02:37:58;;;;;;;28.05;17.42;;;;;;;;;;2080748;28;20210;-59
2021/09/05 02:39:17;;;;;;;26.45;17.25;;;;;;;;;;2090250;28;20206;-56
2021/09/05 02:40:37;;;;;;;23.20;17.67;;;;;;;;;;2084926;28;20175;-56
2021/09/05 02:42:00;;;;;;;27.90;17.90;;;;;;;;;;2087155;28;20188;-58
2021/09/05 02:43:25;;;;;;;27.75;17.80;;;;;;;;;;2081493;28;20167;-58
2021/09/05 02:44:49;;;;;;;28.42;17.85;;;;;;;;;;2052739;28;20202;-56
2021/09/05 02:46:09;;;;;;;29.77;18.48;;;;;;;;;;2085375;28;20156;-57
2021/09/05 02:47:32;;;;;;;27.77;16.95;;;;;;;;;;2080489;28;20672;-58
2021/09/05 02:48:52;;;;;;;29.75;18.77;;;;;;;;;;2083502;28;20195;-59
2021/09/05 02:50:13;;;;;;;31.23;18.17;;;;;;;;;;2085711;28;20172;-57
2021/09/05 02:51:32;;;;;;;32.15;18.63;;;;;;;;;;2076813;28;20564;-61
2021/09/05 02:53:04;;;;;;;29.45;19.90;;;;;;;;;;2055782;28;20171;-59
2021/09/05 02:54:23;;;;;;;30.65;19.73;;;;;;;;;;2086881;28;20219;-54
2021/09/05 02:55:56;;;;;;;31.02;20.13;;;;;;;;;;2077747;28;20160;-57
2021/09/05 02:57:28;;;;;;;32.45;19.45;;;;;;;;;;2042423;28;20191;-55
2021/09/05 02:58:58;;;;;;;32.60;19.20;;;;;;;;;;2075250;28;20176;-57
2021/09/05 03:00:17;;;;;;;27.77;18.80;;;;;;;;;;2089750;28;20196;-53
2021/09/05 03:01:35;;;;;;;25.40;17.90;;;;;;;;;;2073903;28;20573;-57
2021/09/05 03:02:57;;;;;;;27.38;18.25;;;;;;;;;;2079766;28;20168;-58
2021/09/05 03:04:24;;;;;;;28.52;17.65;;;;;;;;;;2065611;28;20589;-58
2021/09/05 03:05:47;;;;;;;31.92;18.30;;;;;;;;;;2076641;28;20179;-54
2021/09/05 03:07:08;;;;;;;30.80;19.98;;;;;;;;;;2088102;28;20227;-55
2021/09/05 03:08:24;;;;;;;43.63;24.25;;;;;;;;;;2087681;28;20912;-57
2021/09/05 03:09:46;;;;;;;35.53;22.23;;;;;;;;;;2076382;28;20192;-58
2021/09/05 03:11:18;;;;;;;43.83;25.13;;;;;;;;;;2084367;28;20193;-57
2021/09/05 03:12:45;;;;;;;54.10;26.90;;;;;;;;;;2088091;28;20199;-57
2021/09/05 03:14:20;;;;;;;57.05;31.73;;;;;;;;;;2085554;28;20549;-55
2021/09/05 03:15:46;;;;;;;64.72;33.35;;;;;;;;;;2085297;28;20545;-56
2021/09/05 03:17:05;;;;;;;56.05;31.38;;;;;;;;;;2088773;28;20167;-59
2021/09/05 03:18:32;;;;;;;55.47;30.77;;;;;;;;;;2049472;28;20195;-54
2021/09/05 03:19:51;;;;;;;55.88;29.98;;;;;;;;;;2088936;28;20274;-57
2021/09/05 03:21:10;;;;;;;55.83;30.55;;;;;;;;;;2088853;28;20155;-56
2021/09/05 03:22:30;;;;;;;50.40;28.50;;;;;;;;;;2072276;28;20185;-60
2021/09/05 03:23:46;;;;;;;54.63;31.20;;;;;;;;;;2081827;28;20164;-58
2021/09/05 03:25:18;;;;;;;49.53;27.63;;;;;;;;;;2087517;28;20528;-57
2021/09/05 03:26:37;;;;;;;56.63;31.73;;;;;;;;;;2080846;28;20152;-60
2021/09/05 03:28:03;;;;;;;48.13;26.77;;;;;;;;;;2080816;28;20286;-56
2021/09/05 03:29:23;;;;;;;57.40;31.33;;;;;;;;;;2085309;28;20172;-56
2021/09/05 03:30:42;;;;;;;53.70;30.92;;;;;;;;;;2082330;28;20152;-56
2021/09/05 03:32:03;;;;;;;45.70;25.70;;;;;;;;;;2063081;28;20181;-55
2021/09/05 03:33:40;;;;;;;42.35;24.92;;;;;;;;;;2079575;28;20172;-56
2021/09/05 03:35:00;;;;;;;39.58;25.42;;;;;;;;;;2088597;28;20171;-54
2021/09/05 03:36:20;;;;;;;41.83;24.02;;;;;;;;;;2088538;28;20186;-57
2021/09/05 03:37:39;;;;;;;41.67;24.35;;;;;;;;;;2081951;28;20172;-53
2021/09/05 03:39:14;;;;;;;41.20;23.08;;;;;;;;;;2088652;28;20713;-59
2021/09/05 03:40:33;;;;;;;35.00;23.08;;;;;;;;;;2081255;28;20172;-57
2021/09/05 03:42:09;;;;;;;33.60;22.02;;;;;;;;;;2074635;28;20219;-53
2021/09/05 03:43:36;;;;;;;36.78;22.08;;;;;;;;;;2082769;28;20187;-56
2021/09/05 03:44:56;;;;;;;35.85;22.02;;;;;;;;;;2086830;28;20213;-56
2021/09/05 03:46:28;;;;;;;31.60;20.33;;;;;;;;;;2082642;28;20636;-57
2021/09/05 03:47:48;;;;;;;37.83;21.55;;;;;;;;;;2073803;28;20177;-55
2021/09/05 03:49:21;;;;;;;36.28;22.17;;;;;;;;;;2075896;28;20720;-53
2021/09/05 03:50:22;;;;;;;35.65;21.20;;;;;;;;;;2079617;28;20168;-59
2021/09/05 03:51:24;;;;;;;33.55;21.63;;;;;;;;;;2079267;28;20255;-53
2021/09/05 03:52:28;;;;;;;34.58;22.30;;;;;;;;;;2080811;28;20198;-61
2021/09/05 03:53:31;;;;;;;36.35;21.70;;;;;;;;;;2080219;28;20664;-56
2021/09/05 03:54:32;;;;;;;35.30;22.48;;;;;;;;;;2079766;28;20164;-54
2021/09/05 03:55:32;;;;;;;30.55;21.10;;;;;;;;;;2071955;28;20181;-58
2021/09/05 03:56:33;;;;;;;36.08;22.25;;;;;;;;;;2076659;28;20642;-58
2021/09/05 03:57:34;;;;;;;36.08;22.58;;;;;;;;;;2078287;28;20184;-56
2021/09/05 03:58:34;;;;;;;36.33;21.70;;;;;;;;;;2079096;28;20642;-58
2021/09/05 03:59:34;;;;;;;35.42;22.00;;;;;;;;;;2081782;28;20171;-60
2021/09/05 04:00:37;;;;;;;35.80;20.55;;;;;;;;;;2066145;28;20188;-59
2021/09/05 04:01:41;;;;;;;33.55;20.80;;;;;;;;;;2071846;28;20211;-58
2021/09/05 04:02:59;;;;;;;37.90;21.20;;;;;;;;;;2078191;28;20200;-56
2021/09/05 04:03:59;;;;;;;35.40;21.48;;;;;;;;;;2085473;28;20172;-59
2021/09/05 04:04:59;;;;;;;34.25;21.85;;;;;;;;;;2088466;28;20171;-57
2021/09/05 04:06:01;;;;;;;30.02;20.20;;;;;;;;;;2086174;28;20230;-54
2021/09/05 04:07:02;;;;;;;30.50;20.13;;;;;;;;;;2087807;28;20195;-51
2021/09/05 04:09:09;;;;;;;31.25;19.63;;;;;;;;;;2088275;28;20258;-56
2021/09/05 04:10:10;;;;;;;26.63;18.88;;;;;;;;;;2085620;28;20625;-58
2021/09/05 04:11:11;;;;;;;27.55;18.58;;;;;;;;;;2088088;28;20172;-55
2021/09/05 04:12:12;;;;;;;30.17;19.40;;;;;;;;;;2086308;28;20202;-55
2021/09/05 04:13:14;;;;;;;27.63;18.73;;;;;;;;;;2088344;28;20294;-58
2021/09/05 04:14:14;;;;;;;28.23;18.88;;;;;;;;;;2088367;28;20270;-57
2021/09/05 04:15:14;;;;;;;27.40;18.08;;;;;;;;;;2088950;28;20167;-58
2021/09/05 04:16:15;;;;;;;26.48;19.00;;;;;;;;;;2088571;28;20187;-57
2021/09/05 04:17:15;;;;;;;28.23;18.65;;;;;;;;;;2089078;28;20184;-59
2021/09/05 04:18:15;;;;;;;30.63;17.73;;;;;;;;;;2088983;28;20189;-55
2021/09/05 04:19:15;;;;;;;26.75;18.27;;;;;;;;;;2089162;28;20180;-54
2021/09/05 04:20:16;;;;;;;28.25;18.48;;;;;;;;;;2089438;28;20213;-56
2021/09/05 04:21:16;;;;;;;26.00;19.13;;;;;;;;;;2089354;28;20167;-58
2021/09/05 04:22:17;;;;;;;28.15;18.67;;;;;;;;;;2089498;28;20190;-56
2021/09/05 04:23:17;;;;;;;27.95;17.55;;;;;;;;;;2089422;28;20180;-56
2021/09/05 04:24:17;;;;;;;25.42;17.10;;;;;;;;;;2089469;28;20175;-59
2021/09/05 04:25:18;;;;;;;33.95;18.60;;;;;;;;;;2088720;28;20245;-58
2021/09/05 04:26:18;;;;;;;25.35;17.92;;;;;;;;;;2089064;28;20187;-57
2021/09/05 04:27:18;;;;;;;26.98;17.90;;;;;;;;;;2085329;28;20204;-58
2021/09/05 04:28:19;;;;;;;29.40;19.13;;;;;;;;;;2088964;28;20241;-58
2021/09/05 04:29:19;;;;;;;26.77;18.35;;;;;;;;;;2089199;28;20179;-59
2021/09/05 04:30:19;;;;;;;26.80;18.17;;;;;;;;;;2089365;28;20186;-58
2021/09/05 04:31:19;;;;;;;29.50;18.75;;;;;;;;;;2089347;28;20178;-61
2021/09/05 04:32:20;;;;;;;28.27;18.50;;;;;;;;;;2089353;28;20164;-61
2021/09/05 04:33:20;;;;;;;27.20;17.85;;;;;;;;;;2088593;28;20179;-59
2021/09/05 04:34:20;;;;;;;28.08;19.05;;;;;;;;;;2087936;28;20317;-54
2021/09/05 04:35:21;;;;;;;31.08;19.60;;;;;;;;;;2088323;28;20178;-55
2021/09/05 04:36:21;;;;;;;30.83;18.13;;;;;;;;;;2088635;28;20299;-58
2021/09/05 04:37:21;;;;;;;31.95;19.67;;;;;;;;;;2086402;28;20551;-58
2021/09/05 04:38:21;;;;;;;28.50;18.05;;;;;;;;;;2086737;28;20226;-57
2021/09/05 04:39:22;;;;;;;31.20;19.65;;;;;;;;;;2087647;28;20174;-58
2021/09/05 04:40:22;;;;;;;28.95;18.95;;;;;;;;;;2088661;28;20175;-59
2021/09/05 04:41:22;;;;;;;33.47;19.70;;;;;;;;;;2088605;28;20253;-58
2021/09/05 04:42:22;;;;;;;35.85;20.52;;;;;;;;;;2090031;28;20168;-55
2021/09/05 04:43:23;;;;;;;33.50;19.00;;;;;;;;;;2086923;28;20183;-59
2021/09/05 04:44:23;;;;;;;26.60;18.23;;;;;;;;;;2088814;28;20172;-56
2021/09/05 04:45:23;;;;;;;33.30;19.35;;;;;;;;;;2089466;28;20171;-55
2021/09/05 04:46:24;;;;;;;31.83;19.08;;;;;;;;;;2088122;28;20171;-57
2021/09/05 04:47:24;;;;;;;31.23;20.17;;;;;;;;;;2081494;28;20351;-55
2021/09/05 04:48:24;;;;;;;29.30;19.90;;;;;;;;;;2089301;28;20270;-59
2021/09/05 04:49:24;;;;;;;37.45;20.00;;;;;;;;;;2085281;28;20185;-53
2021/09/05 04:50:25;;;;;;;32.03;21.67;;;;;;;;;;2089683;28;20214;-60
2021/09/05 04:51:25;;;;;;;29.92;19.77;;;;;;;;;;2089489;28;20160;-58
2021/09/05 04:52:25;;;;;;;33.88;20.63;;;;;;;;;;2090521;28;20179;-54
2021/09/05 04:53:25;;;;;;;33.35;20.30;;;;;;;;;;2089712;28;20164;-55
2021/09/05 04:54:26;;;;;;;32.20;21.40;;;;;;;;;;2090440;28;20171;-57
2021/09/05 04:55:26;;;;;;;31.55;19.70;;;;;;;;;;2089812;28;20197;-59
2021/09/05 04:56:26;;;;;;;33.45;20.70;;;;;;;;;;2080949;28;20267;-56
2021/09/05 04:57:27;;;;;;;31.73;19.77;;;;;;;;;;2081845;28;20183;-56
2021/09/05 04:58:27;;;;;;;31.58;21.55;;;;;;;;;;2091093;28;20336;-57
2021/09/05 04:59:27;;;;;;;37.75;22.65;;;;;;;;;;2094635;28;20210;-57
2021/09/05 05:00:27;;;;;;;33.85;21.48;;;;;;;;;;2094334;28;20172;-59
2021/09/05 05:01:28;;;;;;;40.20;24.48;;;;;;;;;;2091231;28;20713;-55
2021/09/05 05:02:29;;;;;;;41.08;24.02;;;;;;;;;;2090064;28;20213;-55
2021/09/05 05:03:29;;;;;;;34.38;22.63;;;;;;;;;;2086409;28;20164;-56
2021/09/05 05:04:29;;;;;;;36.08;21.05;;;;;;;;;;2089987;28;20537;-55
2021/09/05 05:05:29;;;;;;;35.90;22.38;;;;;;;;;;2089635;28;20589;-53
2021/09/05 05:06:29;;;;;;;33.08;22.05;;;;;;;;;;2089923;28;20263;-53
2021/09/05 05:07:30;;;;;;;36.20;21.48;;;;;;;;;;2085304;28;20200;-57
2021/09/05 05:08:30;;;;;;;32.85;20.23;;;;;;;;;;2089232;28;20859;-55
2021/09/05 05:09:30;;;;;;;32.38;21.70;;;;;;;;;;2085130;28;20160;-55
2021/09/05 05:10:30;;;;;;;34.42;22.52;;;;;;;;;;2081587;28;20168;-56
2021/09/05 05:11:31;;;;;;;34.90;23.05;;;;;;;;;;2089657;28;20172;-56
2021/09/05 05:12:31;;;;;;;35.30;22.67;;;;;;;;;;2089804;28;20640;-56
2021/09/05 05:13:31;;;;;;;32.97;21.80;;;;;;;;;;2083775;28;20165;-60
2021/09/05 05:14:31;;;;;;;37.55;23.70;;;;;;;;;;2089086;28;20690;-57
2021/09/05 05:15:31;;;;;;;38.35;23.02;;;;;;;;;;2077510;28;20265;-56
2021/09/05 05:16:32;;;;;;;37.70;23.83;;;;;;;;;;2089834;28;20168;-58
2021/09/05 05:17:33;;;;;;;40.10;24.33;;;;;;;;;;2090527;28;20179;-54
2021/09/05 05:18:33;;;;;;;43.15;26.35;;;;;;;;;;2090180;28;20202;-58
2021/09/05 05:19:33;;;;;;;41.50;26.90;;;;;;;;;;2089823;28;20671;-57
2021/09/05 05:20:34;;;;;;;44.67;27.98;;;;;;;;;;2090086;28;20164;-58
2021/09/05 05:21:34;;;;;;;45.15;26.83;;;;;;;;;;2090343;28;20179;-56
2021/09/05 05:22:34;;;;;;;49.40;28.90;;;;;;;;;;2090611;28;20226;-58
2021/09/05 05:23:35;;;;;;;39.08;25.92;;;;;;;;;;2090119;28;20179;-53
2021/09/05 05:24:35;;;;;;;40.55;25.42;;;;;;;;;;2090606;28;20168;-56
2021/09/05 05:25:35;;;;;;;45.25;25.55;;;;;;;;;;2089782;28;20172;-58
2021/09/05 05:26:35;;;;;;;45.17;26.55;;;;;;;;;;2090352;28;20266;-56
2021/09/05 05:27:36;;;;;;;42.75;28.10;;;;;;;;;;2090405;28;20229;-53
2021/09/05 05:28:36;;;;;;;39.58;25.75;;;;;;;;;;2090167;28;20188;-53
2021/09/05 05:29:37;;;;;;;43.22;25.58;;;;;;;;;;2090372;28;20168;-57
2021/09/05 05:30:37;;;;;;;40.67;24.45;;;;;;;;;;2081500;28;20574;-56
2021/09/05 05:31:37;;;;;;;41.50;24.38;;;;;;;;;;2081603;28;20176;-56
2021/09/05 05:32:37;;;;;;;40.38;24.52;;;;;;;;;;2090242;28;20167;-58
2021/09/05 05:33:38;;;;;;;35.90;23.08;;;;;;;;;;2090431;28;20168;-56
2021/09/05 05:34:38;;;;;;;36.35;21.40;;;;;;;;;;2090270;28;20170;-56
2021/09/05 05:35:38;;;;;;;39.20;25.40;;;;;;;;;;2090342;28;20167;-58
2021/09/05 05:36:39;;;;;;;37.35;23.70;;;;;;;;;;2090284;28;20178;-56
2021/09/05 05:37:39;;;;;;;39.33;25.00;;;;;;;;;;2090167;28;20197;-59
2021/09/05 05:38:39;;;;;;;34.30;21.58;;;;;;;;;;2089719;28;20175;-56
2021/09/05 05:39:40;;;;;;;40.50;24.10;;;;;;;;;;2090556;28;20171;-60
2021/09/05 05:40:40;;;;;;;36.35;23.40;;;;;;;;;;2090308;28;20187;-59
2021/09/05 05:41:40;;;;;;;37.13;23.65;;;;;;;;;;2072491;28;20638;-57
2021/09/05 05:42:40;;;;;;;39.38;25.52;;;;;;;;;;2073961;28;20164;-57
2021/09/05 05:43:41;;;;;;;31.42;21.80;;;;;;;;;;2084439;28;20243;-59
2021/09/05 05:44:41;;;;;;;37.20;23.25;;;;;;;;;;2089473;28;20233;-56
2021/09/05 05:45:41;;;;;;;39.28;25.30;;;;;;;;;;2083787;28;20176;-57
2021/09/05 05:46:42;;;;;;;36.22;23.63;;;;;;;;;;2089446;28;20262;-55
2021/09/05 05:47:42;;;;;;;36.80;23.33;;;;;;;;;;2086215;28;20258;-60
2021/09/05 05:48:42;;;;;;;40.80;24.73;;;;;;;;;;2089157;28;20167;-59
2021/09/05 05:49:46;;;;;;;38.28;24.02;;;;;;;;;;2082302;28;20180;-56
2021/09/05 05:50:47;;;;;;;37.25;23.95;;;;;;;;;;2088000;28;20679;-59
2021/09/05 05:51:48;;;;;;;32.92;22.42;;;;;;;;;;2088769;28;21077;-56
2021/09/05 05:52:48;;;;;;;32.72;23.00;;;;;;;;;;2089325;28;20175;-56
2021/09/05 05:53:48;;;;;;;37.78;22.80;;;;;;;;;;2089143;28;20620;-60
2021/09/05 05:54:48;;;;;;;37.83;22.38;;;;;;;;;;2089973;28;20200;-54
2021/09/05 05:55:48;;;;;;;30.60;21.90;;;;;;;;;;2088085;28;20164;-52
2021/09/05 05:56:49;;;;;;;33.30;22.58;;;;;;;;;;2075662;28;20212;-57
2021/09/05 05:57:49;;;;;;;29.80;22.38;;;;;;;;;;2078033;28;20181;-56
2021/09/05 05:58:49;;;;;;;30.45;20.58;;;;;;;;;;2083346;28;20184;-55
2021/09/05 05:59:49;;;;;;;29.40;21.02;;;;;;;;;;2089236;28;20225;-52
2021/09/05 06:00:50;;;;;;;31.50;20.25;;;;;;;;;;2089576;28;20187;-57
2021/09/05 06:01:50;;;;;;;28.08;21.48;;;;;;;;;;2087573;28;20191;-55
2021/09/05 06:02:51;;;;;;;27.80;21.27;;;;;;;;;;2088706;28;20958;-54
2021/09/05 06:03:51;;;;;;;30.73;21.42;;;;;;;;;;2088622;28;20270;-56
2021/09/05 06:04:51;;;;;;;26.77;18.75;;;;;;;;;;2089368;28;20183;-55
2021/09/05 06:05:51;;;;;;;26.98;18.80;;;;;;;;;;2085793;28;20167;-55
2021/09/05 06:06:54;;;;;;;28.65;20.83;;;;;;;;;;2088781;28;20628;-59
2021/09/05 06:07:55;;;;;;;26.08;18.70;;;;;;;;;;2087242;28;20168;-50
2021/09/05 06:08:55;;;;;;;31.33;20.30;;;;;;;;;;2089260;28;20163;-53
2021/09/05 06:09:56;;;;;;;30.02;20.80;;;;;;;;;;2086511;28;20207;-57
2021/09/05 06:10:56;;;;;;;28.17;19.95;;;;;;;;;;2075862;28;20183;-60
2021/09/05 06:11:56;;;;;;;30.77;21.75;;;;;;;;;;2083595;28;20590;-55
2021/09/05 06:12:56;;;;;;;29.60;20.13;;;;;;;;;;2089383;28;20765;-53
2021/09/05 06:13:57;;;;;;;28.08;20.58;;;;;;;;;;2081792;28;20606;-56
2021/09/05 06:14:57;;;;;;;25.58;18.88;;;;;;;;;;2084110;28;20836;-52
2021/09/05 06:15:57;;;;;;;24.80;19.20;;;;;;;;;;2084794;28;20172;-57
2021/09/05 06:16:58;;;;;;;29.60;19.85;;;;;;;;;;2088660;28;20195;-53
2021/09/05 06:17:58;;;;;;;26.05;18.80;;;;;;;;;;2088561;28;20233;-56
2021/09/05 06:18:59;;;;;;;23.58;18.65;;;;;;;;;;2089196;28;20179;-59
2021/09/05 06:20:00;;;;;;;22.65;18.23;;;;;;;;;;2088678;28;20163;-57
2021/09/05 06:21:00;;;;;;;33.03;21.08;;;;;;;;;;2089576;28;20179;-52
2021/09/05 06:22:00;;;;;;;26.55;19.73;;;;;;;;;;2085683;28;20179;-58
2021/09/05 06:23:01;;;;;;;27.52;20.02;;;;;;;;;;2089438;28;20636;-52
2021/09/05 06:24:01;;;;;;;29.45;18.52;;;;;;;;;;2088854;28;20211;-59
2021/09/05 06:25:01;;;;;;;22.77;17.58;;;;;;;;;;2089450;28;20183;-52
2021/09/05 06:26:02;;;;;;;21.25;16.58;;;;;;;;;;2085382;28;20213;-49
2021/09/05 06:27:02;;;;;;;23.55;18.67;;;;;;;;;;2088824;28;20191;-57
2021/09/05 06:28:02;;;;;;;23.80;19.17;;;;;;;;;;2085168;28;20188;-58
2021/09/05 06:29:03;;;;;;;25.25;20.00;;;;;;;;;;2089147;28;20648;-54
2021/09/05 06:30:04;;;;;;;24.77;18.20;;;;;;;;;;2089020;28;20227;-56
2021/09/05 06:31:04;;;;;;;28.25;21.27;;;;;;;;;;2089429;28;20709;-56
2021/09/05 06:32:04;;;;;;;25.45;18.98;;;;;;;;;;2088752;28;20170;-56
2021/09/05 06:33:04;;;;;;;26.80;19.35;;;;;;;;;;2088832;28;20230;-56
2021/09/05 06:34:05;;;;;;;23.08;17.75;;;;;;;;;;2088674;28;20189;-56
2021/09/05 06:35:05;;;;;;;23.88;17.50;;;;;;;;;;2089201;28;20171;-58